sensor_id;sensor_type;location;lat;lon;timestamp;P1;durP1;ratioP1;P2;durP2;ratioP2
20065;SDS011;10193;48.884;9.182;2023-04-24T00:01:18;2.17;;;0.82;;
20065;SDS011;10193;48.884;9.182;2023-04-24T00:03:45;0.70;;;0.70;;
20065;SDS011;10193;48.884;9.182;2023-04-24T00:06:12;0.52;;;0.50;;
20065;SDS011;10193;48.884;9.182;2023-04-24T00:08:38;0.75;;;0.60;;
20065;SDS011;10193;48.884;9.182;2023-04-24T00:11:05;0.60;;;0.60;;
20065;SDS011;10193;48.884;9.182;2023-04-24T00:13:33;0.45;;;0.45;;
20065;SDS011;10193;48.884;9.182;2023-04-24T00:16:00;0.40;;;0.40;;
20065;SDS011;10193;48.884;9.182;2023-04-24T00:18:26;0.50;;;0.40;;
20065;SDS011;10193;48.884;9.182;2023-04-24T00:20:53;0.40;;;0.40;;
20065;SDS011;10193;48.884;9.182;2023-04-24T00:23:20;0.82;;;0.50;;
20065;SDS011;10193;48.884;9.182;2023-04-24T00:25:47;0.68;;;0.60;;
20065;SDS011;10193;48.884;9.182;2023-04-24T00:28:13;0.75;;;0.50;;
20065;SDS011;10193;48.884;9.182;2023-04-24T00:30:41;0.60;;;0.60;;
20065;SDS011;10193;48.884;9.182;2023-04-24T00:33:08;0.80;;;0.50;;
20065;SDS011;10193;48.884;9.182;2023-04-24T00:35:35;0.30;;;0.30;;
20065;SDS011;10193;48.884;9.182;2023-04-24T00:38:01;0.30;;;0.30;;
20065;SDS011;10193;48.884;9.182;2023-04-24T00:40:28;0.90;;;0.40;;
20065;SDS011;10193;48.884;9.182;2023-04-24T00:42:55;0.52;;;0.50;;
20065;SDS011;10193;48.884;9.182;2023-04-24T00:45:22;0.75;;;0.50;;
20065;SDS011;10193;48.884;9.182;2023-04-24T00:47:50;0.40;;;0.40;;
20065;SDS011;10193;48.884;9.182;2023-04-24T00:50:18;1.13;;;0.40;;
20065;SDS011;10193;48.884;9.182;2023-04-24T00:52:46;0.88;;;0.40;;
20065;SDS011;10193;48.884;9.182;2023-04-24T00:55:13;0.50;;;0.50;;
20065;SDS011;10193;48.884;9.182;2023-04-24T00:57:39;0.40;;;0.40;;
20065;SDS011;10193;48.884;9.182;2023-04-24T01:00:06;0.30;;;0.30;;
20065;SDS011;10193;48.884;9.182;2023-04-24T01:02:36;0.60;;;0.60;;
20065;SDS011;10193;48.884;9.182;2023-04-24T01:05:10;1.55;;;0.40;;
20065;SDS011;10193;48.884;9.182;2023-04-24T01:07:38;0.40;;;0.40;;
20065;SDS011;10193;48.884;9.182;2023-04-24T01:10:05;0.43;;;0.43;;
20065;SDS011;10193;48.884;9.182;2023-04-24T01:12:33;0.73;;;0.50;;
20065;SDS011;10193;48.884;9.182;2023-04-24T01:15:00;0.68;;;0.40;;
20065;SDS011;10193;48.884;9.182;2023-04-24T01:17:28;0.40;;;0.40;;
20065;SDS011;10193;48.884;9.182;2023-04-24T01:19:54;0.40;;;0.40;;
20065;SDS011;10193;48.884;9.182;2023-04-24T01:22:23;0.30;;;0.30;;
20065;SDS011;10193;48.884;9.182;2023-04-24T01:24:50;0.50;;;0.50;;
20065;SDS011;10193;48.884;9.182;2023-04-24T01:27:17;0.88;;;0.50;;
20065;SDS011;10193;48.884;9.182;2023-04-24T01:29:45;0.63;;;0.50;;
20065;SDS011;10193;48.884;9.182;2023-04-24T01:32:12;0.63;;;0.30;;
20065;SDS011;10193;48.884;9.182;2023-04-24T01:34:39;0.50;;;0.40;;
20065;SDS011;10193;48.884;9.182;2023-04-24T01:37:06;1.42;;;0.50;;
20065;SDS011;10193;48.884;9.182;2023-04-24T01:39:34;0.47;;;0.47;;
20065;SDS011;10193;48.884;9.182;2023-04-24T01:42:01;0.40;;;0.40;;
20065;SDS011;10193;48.884;9.182;2023-04-24T01:44:28;0.30;;;0.30;;
20065;SDS011;10193;48.884;9.182;2023-04-24T01:46:55;0.90;;;0.40;;
20065;SDS011;10193;48.884;9.182;2023-04-24T01:49:22;0.28;;;0.28;;
20065;SDS011;10193;48.884;9.182;2023-04-24T01:51:48;1.30;;;0.57;;
20065;SDS011;10193;48.884;9.182;2023-04-24T01:54:15;0.40;;;0.40;;
20065;SDS011;10193;48.884;9.182;2023-04-24T01:56:43;1.00;;;0.40;;
20065;SDS011;10193;48.884;9.182;2023-04-24T01:59:11;0.30;;;0.30;;
20065;SDS011;10193;48.884;9.182;2023-04-24T02:01:38;0.40;;;0.35;;
20065;SDS011;10193;48.884;9.182;2023-04-24T02:04:05;0.82;;;0.43;;
20065;SDS011;10193;48.884;9.182;2023-04-24T02:06:32;0.50;;;0.50;;
20065;SDS011;10193;48.884;9.182;2023-04-24T02:08:59;0.43;;;0.32;;
20065;SDS011;10193;48.884;9.182;2023-04-24T02:11:26;0.32;;;0.32;;
20065;SDS011;10193;48.884;9.182;2023-04-24T02:13:54;0.40;;;0.40;;
20065;SDS011;10193;48.884;9.182;2023-04-24T02:16:21;0.30;;;0.30;;
20065;SDS011;10193;48.884;9.182;2023-04-24T02:18:48;0.98;;;0.60;;
20065;SDS011;10193;48.884;9.182;2023-04-24T02:21:14;0.90;;;0.52;;
20065;SDS011;10193;48.884;9.182;2023-04-24T02:23:41;1.02;;;0.38;;
20065;SDS011;10193;48.884;9.182;2023-04-24T02:26:08;0.77;;;0.40;;
20065;SDS011;10193;48.884;9.182;2023-04-24T02:28:34;0.43;;;0.40;;
20065;SDS011;10193;48.884;9.182;2023-04-24T02:31:02;0.77;;;0.50;;
20065;SDS011;10193;48.884;9.182;2023-04-24T02:33:30;0.52;;;0.40;;
20065;SDS011;10193;48.884;9.182;2023-04-24T02:35:56;0.35;;;0.35;;
20065;SDS011;10193;48.884;9.182;2023-04-24T02:38:23;0.63;;;0.47;;
20065;SDS011;10193;48.884;9.182;2023-04-24T02:40:50;0.40;;;0.40;;
20065;SDS011;10193;48.884;9.182;2023-04-24T02:43:17;0.43;;;0.40;;
20065;SDS011;10193;48.884;9.182;2023-04-24T02:45:43;1.17;;;0.57;;
20065;SDS011;10193;48.884;9.182;2023-04-24T02:48:11;0.90;;;0.55;;
20065;SDS011;10193;48.884;9.182;2023-04-24T02:50:38;0.60;;;0.60;;
20065;SDS011;10193;48.884;9.182;2023-04-24T02:53:05;0.88;;;0.47;;
20065;SDS011;10193;48.884;9.182;2023-04-24T02:55:32;0.77;;;0.60;;
20065;SDS011;10193;48.884;9.182;2023-04-24T02:57:58;0.95;;;0.50;;
20065;SDS011;10193;48.884;9.182;2023-04-24T03:00:25;0.55;;;0.50;;
20065;SDS011;10193;48.884;9.182;2023-04-24T03:02:52;1.63;;;0.30;;
20065;SDS011;10193;48.884;9.182;2023-04-24T03:05:20;1.50;;;0.80;;
20065;SDS011;10193;48.884;9.182;2023-04-24T03:07:46;0.50;;;0.50;;
20065;SDS011;10193;48.884;9.182;2023-04-24T03:10:13;0.65;;;0.60;;
20065;SDS011;10193;48.884;9.182;2023-04-24T03:12:40;0.43;;;0.40;;
20065;SDS011;10193;48.884;9.182;2023-04-24T03:15:07;1.58;;;0.50;;
20065;SDS011;10193;48.884;9.182;2023-04-24T03:17:34;0.63;;;0.50;;
20065;SDS011;10193;48.884;9.182;2023-04-24T03:20:01;0.40;;;0.40;;
20065;SDS011;10193;48.884;9.182;2023-04-24T03:22:31;0.60;;;0.45;;
20065;SDS011;10193;48.884;9.182;2023-04-24T03:24:58;0.40;;;0.40;;
20065;SDS011;10193;48.884;9.182;2023-04-24T03:27:25;0.40;;;0.40;;
20065;SDS011;10193;48.884;9.182;2023-04-24T03:29:52;0.40;;;0.40;;
20065;SDS011;10193;48.884;9.182;2023-04-24T03:32:20;2.35;;;0.43;;
20065;SDS011;10193;48.884;9.182;2023-04-24T03:34:47;0.40;;;0.40;;
20065;SDS011;10193;48.884;9.182;2023-04-24T03:37:13;0.40;;;0.40;;
20065;SDS011;10193;48.884;9.182;2023-04-24T03:39:41;0.40;;;0.40;;
20065;SDS011;10193;48.884;9.182;2023-04-24T03:42:08;0.55;;;0.52;;
20065;SDS011;10193;48.884;9.182;2023-04-24T03:44:35;0.38;;;0.38;;
20065;SDS011;10193;48.884;9.182;2023-04-24T03:47:03;0.60;;;0.60;;
20065;SDS011;10193;48.884;9.182;2023-04-24T03:49:29;0.30;;;0.30;;
20065;SDS011;10193;48.884;9.182;2023-04-24T03:51:56;0.75;;;0.57;;
20065;SDS011;10193;48.884;9.182;2023-04-24T03:54:23;0.45;;;0.45;;
20065;SDS011;10193;48.884;9.182;2023-04-24T03:56:51;1.20;;;0.52;;
20065;SDS011;10193;48.884;9.182;2023-04-24T03:59:17;0.98;;;0.65;;
20065;SDS011;10193;48.884;9.182;2023-04-24T04:01:44;0.45;;;0.45;;
20065;SDS011;10193;48.884;9.182;2023-04-24T04:04:11;0.52;;;0.52;;
20065;SDS011;10193;48.884;9.182;2023-04-24T04:06:38;0.75;;;0.40;;
20065;SDS011;10193;48.884;9.182;2023-04-24T04:09:04;0.88;;;0.40;;
20065;SDS011;10193;48.884;9.182;2023-04-24T04:11:32;0.63;;;0.50;;
20065;SDS011;10193;48.884;9.182;2023-04-24T04:14:00;0.50;;;0.50;;
20065;SDS011;10193;48.884;9.182;2023-04-24T04:16:26;0.40;;;0.40;;
20065;SDS011;10193;48.884;9.182;2023-04-24T04:18:53;0.45;;;0.40;;
20065;SDS011;10193;48.884;9.182;2023-04-24T04:21:20;0.30;;;0.30;;
20065;SDS011;10193;48.884;9.182;2023-04-24T04:23:47;1.33;;;0.50;;
20065;SDS011;10193;48.884;9.182;2023-04-24T04:26:14;0.50;;;0.50;;
20065;SDS011;10193;48.884;9.182;2023-04-24T04:28:40;0.95;;;0.63;;
20065;SDS011;10193;48.884;9.182;2023-04-24T04:31:10;1.27;;;0.63;;
20065;SDS011;10193;48.884;9.182;2023-04-24T04:33:37;0.63;;;0.60;;
20065;SDS011;10193;48.884;9.182;2023-04-24T04:36:04;0.73;;;0.60;;
20065;SDS011;10193;48.884;9.182;2023-04-24T04:38:31;0.60;;;0.40;;
20065;SDS011;10193;48.884;9.182;2023-04-24T04:40:58;0.55;;;0.45;;
20065;SDS011;10193;48.884;9.182;2023-04-24T04:43:25;0.77;;;0.60;;
20065;SDS011;10193;48.884;9.182;2023-04-24T04:45:52;0.60;;;0.45;;
20065;SDS011;10193;48.884;9.182;2023-04-24T04:48:20;0.50;;;0.50;;
20065;SDS011;10193;48.884;9.182;2023-04-24T04:50:47;0.60;;;0.60;;
20065;SDS011;10193;48.884;9.182;2023-04-24T04:53:14;0.45;;;0.45;;
20065;SDS011;10193;48.884;9.182;2023-04-24T04:55:41;0.50;;;0.50;;
20065;SDS011;10193;48.884;9.182;2023-04-24T04:58:08;0.47;;;0.47;;
20065;SDS011;10193;48.884;9.182;2023-04-24T05:00:34;1.65;;;0.73;;
20065;SDS011;10193;48.884;9.182;2023-04-24T05:03:02;0.40;;;0.40;;
20065;SDS011;10193;48.884;9.182;2023-04-24T05:05:31;0.70;;;0.60;;
20065;SDS011;10193;48.884;9.182;2023-04-24T05:07:58;0.75;;;0.68;;
20065;SDS011;10193;48.884;9.182;2023-04-24T05:10:24;0.60;;;0.60;;
20065;SDS011;10193;48.884;9.182;2023-04-24T05:12:51;0.70;;;0.70;;
20065;SDS011;10193;48.884;9.182;2023-04-24T05:15:17;0.90;;;0.63;;
20065;SDS011;10193;48.884;9.182;2023-04-24T05:17:44;0.90;;;0.80;;
20065;SDS011;10193;48.884;9.182;2023-04-24T05:20:11;1.17;;;0.82;;
20065;SDS011;10193;48.884;9.182;2023-04-24T05:22:39;0.60;;;0.60;;
20065;SDS011;10193;48.884;9.182;2023-04-24T05:25:05;0.80;;;0.80;;
20065;SDS011;10193;48.884;9.182;2023-04-24T05:27:33;0.60;;;0.60;;
20065;SDS011;10193;48.884;9.182;2023-04-24T05:30:00;1.52;;;0.93;;
20065;SDS011;10193;48.884;9.182;2023-04-24T05:32:26;0.88;;;0.88;;
20065;SDS011;10193;48.884;9.182;2023-04-24T05:34:53;0.70;;;0.70;;
20065;SDS011;10193;48.884;9.182;2023-04-24T05:37:20;0.77;;;0.77;;
20065;SDS011;10193;48.884;9.182;2023-04-24T05:39:48;1.23;;;1.13;;
20065;SDS011;10193;48.884;9.182;2023-04-24T05:42:15;0.82;;;0.80;;
20065;SDS011;10193;48.884;9.182;2023-04-24T05:44:41;0.88;;;0.80;;
20065;SDS011;10193;48.884;9.182;2023-04-24T05:47:08;0.90;;;0.80;;
20065;SDS011;10193;48.884;9.182;2023-04-24T05:49:35;1.02;;;0.80;;
20065;SDS011;10193;48.884;9.182;2023-04-24T05:52:01;0.85;;;0.73;;
20065;SDS011;10193;48.884;9.182;2023-04-24T05:54:30;1.33;;;1.15;;
20065;SDS011;10193;48.884;9.182;2023-04-24T05:56:58;1.23;;;1.10;;
20065;SDS011;10193;48.884;9.182;2023-04-24T05:59:26;1.10;;;1.10;;
20065;SDS011;10193;48.884;9.182;2023-04-24T06:01:53;1.27;;;1.00;;
20065;SDS011;10193;48.884;9.182;2023-04-24T06:04:19;0.90;;;0.90;;
20065;SDS011;10193;48.884;9.182;2023-04-24T06:06:46;1.45;;;1.05;;
20065;SDS011;10193;48.884;9.182;2023-04-24T06:09:15;0.90;;;0.90;;
20065;SDS011;10193;48.884;9.182;2023-04-24T06:11:42;0.75;;;0.75;;
20065;SDS011;10193;48.884;9.182;2023-04-24T06:14:10;1.20;;;1.10;;
20065;SDS011;10193;48.884;9.182;2023-04-24T06:16:37;1.00;;;1.00;;
20065;SDS011;10193;48.884;9.182;2023-04-24T06:19:04;1.00;;;1.00;;
20065;SDS011;10193;48.884;9.182;2023-04-24T06:21:31;1.33;;;1.20;;
20065;SDS011;10193;48.884;9.182;2023-04-24T06:23:58;1.20;;;1.10;;
20065;SDS011;10193;48.884;9.182;2023-04-24T06:26:24;1.40;;;1.30;;
20065;SDS011;10193;48.884;9.182;2023-04-24T06:28:51;1.10;;;1.10;;
20065;SDS011;10193;48.884;9.182;2023-04-24T06:31:21;1.30;;;1.08;;
20065;SDS011;10193;48.884;9.182;2023-04-24T06:33:48;1.17;;;1.17;;
20065;SDS011;10193;48.884;9.182;2023-04-24T06:36:15;1.27;;;1.20;;
20065;SDS011;10193;48.884;9.182;2023-04-24T06:38:41;1.58;;;1.48;;
20065;SDS011;10193;48.884;9.182;2023-04-24T06:41:09;1.60;;;1.50;;
20065;SDS011;10193;48.884;9.182;2023-04-24T06:43:36;1.50;;;1.40;;
20065;SDS011;10193;48.884;9.182;2023-04-24T06:46:02;1.30;;;1.30;;
20065;SDS011;10193;48.884;9.182;2023-04-24T06:48:31;1.70;;;1.20;;
20065;SDS011;10193;48.884;9.182;2023-04-24T06:50:57;1.27;;;1.25;;
20065;SDS011;10193;48.884;9.182;2023-04-24T06:53:24;1.23;;;1.23;;
20065;SDS011;10193;48.884;9.182;2023-04-24T06:55:51;1.45;;;1.35;;
20065;SDS011;10193;48.884;9.182;2023-04-24T06:58:17;1.38;;;1.27;;
20065;SDS011;10193;48.884;9.182;2023-04-24T07:00:44;1.20;;;1.20;;
20065;SDS011;10193;48.884;9.182;2023-04-24T07:03:11;1.40;;;1.30;;
20065;SDS011;10193;48.884;9.182;2023-04-24T07:05:39;1.48;;;1.38;;
20065;SDS011;10193;48.884;9.182;2023-04-24T07:08:06;2.58;;;1.50;;
20065;SDS011;10193;48.884;9.182;2023-04-24T07:10:36;1.40;;;1.40;;
20065;SDS011;10193;48.884;9.182;2023-04-24T07:13:03;1.45;;;1.38;;
20065;SDS011;10193;48.884;9.182;2023-04-24T07:15:29;1.50;;;1.40;;
20065;SDS011;10193;48.884;9.182;2023-04-24T07:17:57;1.35;;;1.30;;
20065;SDS011;10193;48.884;9.182;2023-04-24T07:20:23;1.73;;;1.42;;
20065;SDS011;10193;48.884;9.182;2023-04-24T07:22:52;1.48;;;1.38;;
20065;SDS011;10193;48.884;9.182;2023-04-24T07:25:19;1.30;;;1.20;;
20065;SDS011;10193;48.884;9.182;2023-04-24T07:27:46;1.40;;;1.30;;
20065;SDS011;10193;48.884;9.182;2023-04-24T07:30:14;1.42;;;1.42;;
20065;SDS011;10193;48.884;9.182;2023-04-24T07:32:40;1.42;;;1.33;;
20065;SDS011;10193;48.884;9.182;2023-04-24T07:35:07;1.30;;;1.30;;
20065;SDS011;10193;48.884;9.182;2023-04-24T07:37:35;1.25;;;1.15;;
20065;SDS011;10193;48.884;9.182;2023-04-24T07:40:04;1.40;;;1.30;;
20065;SDS011;10193;48.884;9.182;2023-04-24T07:42:31;1.52;;;1.30;;
20065;SDS011;10193;48.884;9.182;2023-04-24T07:44:59;1.25;;;1.15;;
20065;SDS011;10193;48.884;9.182;2023-04-24T07:47:26;1.13;;;1.13;;
20065;SDS011;10193;48.884;9.182;2023-04-24T07:49:52;1.17;;;1.17;;
20065;SDS011;10193;48.884;9.182;2023-04-24T07:52:19;1.02;;;1.02;;
20065;SDS011;10193;48.884;9.182;2023-04-24T07:54:46;2.15;;;1.20;;
20065;SDS011;10193;48.884;9.182;2023-04-24T07:57:14;1.90;;;1.40;;
20065;SDS011;10193;48.884;9.182;2023-04-24T07:59:40;1.30;;;1.20;;
20065;SDS011;10193;48.884;9.182;2023-04-24T08:02:07;1.30;;;1.20;;
20065;SDS011;10193;48.884;9.182;2023-04-24T08:04:34;1.42;;;1.33;;
20065;SDS011;10193;48.884;9.182;2023-04-24T08:07:01;1.40;;;1.05;;
20065;SDS011;10193;48.884;9.182;2023-04-24T08:09:28;1.45;;;1.35;;
20065;SDS011;10193;48.884;9.182;2023-04-24T08:11:54;1.10;;;1.10;;
20065;SDS011;10193;48.884;9.182;2023-04-24T08:14:22;1.35;;;1.25;;
20065;SDS011;10193;48.884;9.182;2023-04-24T08:16:49;1.50;;;1.40;;
20065;SDS011;10193;48.884;9.182;2023-04-24T08:19:16;1.10;;;1.10;;
20065;SDS011;10193;48.884;9.182;2023-04-24T08:21:42;2.95;;;1.52;;
20065;SDS011;10193;48.884;9.182;2023-04-24T08:24:09;1.27;;;1.17;;
20065;SDS011;10193;48.884;9.182;2023-04-24T08:26:36;1.25;;;1.23;;
20065;SDS011;10193;48.884;9.182;2023-04-24T08:29:02;1.23;;;1.23;;
20065;SDS011;10193;48.884;9.182;2023-04-24T08:31:30;1.27;;;1.10;;
20065;SDS011;10193;48.884;9.182;2023-04-24T08:33:57;1.20;;;1.20;;
20065;SDS011;10193;48.884;9.182;2023-04-24T08:36:24;1.52;;;1.42;;
20065;SDS011;10193;48.884;9.182;2023-04-24T08:38:51;1.27;;;1.20;;
20065;SDS011;10193;48.884;9.182;2023-04-24T08:41:18;1.42;;;1.33;;
20065;SDS011;10193;48.884;9.182;2023-04-24T08:43:46;1.77;;;1.10;;
20065;SDS011;10193;48.884;9.182;2023-04-24T08:46:13;2.05;;;1.30;;
20065;SDS011;10193;48.884;9.182;2023-04-24T08:48:43;1.10;;;1.00;;
20065;SDS011;10193;48.884;9.182;2023-04-24T08:51:10;0.85;;;0.85;;
20065;SDS011;10193;48.884;9.182;2023-04-24T08:53:37;1.77;;;1.10;;
20065;SDS011;10193;48.884;9.182;2023-04-24T08:56:06;1.30;;;1.20;;
20065;SDS011;10193;48.884;9.182;2023-04-24T08:58:33;0.95;;;0.90;;
20065;SDS011;10193;48.884;9.182;2023-04-24T09:01:01;1.00;;;0.90;;
20065;SDS011;10193;48.884;9.182;2023-04-24T09:03:28;1.23;;;1.05;;
20065;SDS011;10193;48.884;9.182;2023-04-24T09:05:57;0.75;;;0.75;;
20065;SDS011;10193;48.884;9.182;2023-04-24T09:08:25;1.20;;;1.10;;
20065;SDS011;10193;48.884;9.182;2023-04-24T09:10:52;1.65;;;0.90;;
20065;SDS011;10193;48.884;9.182;2023-04-24T09:13:19;1.80;;;1.00;;
20065;SDS011;10193;48.884;9.182;2023-04-24T09:15:46;1.30;;;1.20;;
20065;SDS011;10193;48.884;9.182;2023-04-24T09:18:12;1.02;;;1.02;;
20065;SDS011;10193;48.884;9.182;2023-04-24T09:23:26;0.65;;;0.65;;
20065;SDS011;10193;48.884;9.182;2023-04-24T09:25:54;0.88;;;0.77;;
20065;SDS011;10193;48.884;9.182;2023-04-24T09:28:24;0.93;;;0.73;;
20065;SDS011;10193;48.884;9.182;2023-04-24T09:31:01;0.70;;;0.70;;
20065;SDS011;10193;48.884;9.182;2023-04-24T09:33:29;0.80;;;0.60;;
20065;SDS011;10193;48.884;9.182;2023-04-24T09:35:56;1.00;;;0.88;;
20065;SDS011;10193;48.884;9.182;2023-04-24T09:38:31;1.35;;;0.80;;
20065;SDS011;10193;48.884;9.182;2023-04-24T09:41:00;0.88;;;0.80;;
20065;SDS011;10193;48.884;9.182;2023-04-24T09:43:28;0.73;;;0.70;;
20065;SDS011;10193;48.884;9.182;2023-04-24T09:45:55;0.93;;;0.93;;
20065;SDS011;10193;48.884;9.182;2023-04-24T09:48:29;1.05;;;0.95;;
20065;SDS011;10193;48.884;9.182;2023-04-24T09:50:56;1.00;;;0.85;;
20065;SDS011;10193;48.884;9.182;2023-04-24T09:53:23;1.35;;;1.00;;
20065;SDS011;10193;48.884;9.182;2023-04-24T09:55:52;1.42;;;1.00;;
20065;SDS011;10193;48.884;9.182;2023-04-24T09:58:19;0.80;;;0.80;;
20065;SDS011;10193;48.884;9.182;2023-04-24T10:00:52;0.90;;;0.90;;
20065;SDS011;10193;48.884;9.182;2023-04-24T10:03:20;1.20;;;0.90;;
20065;SDS011;10193;48.884;9.182;2023-04-24T10:05:47;1.05;;;0.90;;
20065;SDS011;10193;48.884;9.182;2023-04-24T10:08:13;0.80;;;0.80;;
20065;SDS011;10193;48.884;9.182;2023-04-24T10:10:41;1.05;;;0.90;;
20065;SDS011;10193;48.884;9.182;2023-04-24T10:13:10;1.42;;;0.95;;
20065;SDS011;10193;48.884;9.182;2023-04-24T10:15:39;1.30;;;1.20;;
20065;SDS011;10193;48.884;9.182;2023-04-24T10:18:07;1.10;;;1.00;;
20065;SDS011;10193;48.884;9.182;2023-04-24T10:20:35;0.93;;;0.93;;
20065;SDS011;10193;48.884;9.182;2023-04-24T10:23:03;1.00;;;1.00;;
20065;SDS011;10193;48.884;9.182;2023-04-24T10:25:30;0.93;;;0.93;;
20065;SDS011;10193;48.884;9.182;2023-04-24T10:27:58;1.05;;;0.95;;
20065;SDS011;10193;48.884;9.182;2023-04-24T10:30:28;0.90;;;0.90;;
20065;SDS011;10193;48.884;9.182;2023-04-24T10:32:55;1.00;;;1.00;;
20065;SDS011;10193;48.884;9.182;2023-04-24T10:35:22;0.90;;;0.90;;
20065;SDS011;10193;48.884;9.182;2023-04-24T10:37:54;1.10;;;1.00;;
20065;SDS011;10193;48.884;9.182;2023-04-24T10:40:25;0.90;;;0.88;;
20065;SDS011;10193;48.884;9.182;2023-04-24T10:42:53;1.50;;;0.90;;
20065;SDS011;10193;48.884;9.182;2023-04-24T10:45:20;1.10;;;1.10;;
20065;SDS011;10193;48.884;9.182;2023-04-24T10:47:53;1.45;;;1.35;;
20065;SDS011;10193;48.884;9.182;2023-04-24T10:50:23;1.58;;;1.38;;
20065;SDS011;10193;48.884;9.182;2023-04-24T10:52:51;1.60;;;1.50;;
20065;SDS011;10193;48.884;9.182;2023-04-24T10:58:08;1.55;;;1.45;;
20065;SDS011;10193;48.884;9.182;2023-04-24T11:00:36;1.30;;;1.20;;
20065;SDS011;10193;48.884;9.182;2023-04-24T11:03:05;1.77;;;1.15;;
20065;SDS011;10193;48.884;9.182;2023-04-24T11:05:52;1.35;;;1.30;;
20065;SDS011;10193;48.884;9.182;2023-04-24T11:08:21;1.23;;;0.95;;
20065;SDS011;10193;48.884;9.182;2023-04-24T11:10:54;1.27;;;1.10;;
20065;SDS011;10193;48.884;9.182;2023-04-24T11:13:23;1.10;;;1.10;;
20065;SDS011;10193;48.884;9.182;2023-04-24T11:18:39;0.95;;;0.95;;
20065;SDS011;10193;48.884;9.182;2023-04-24T11:21:11;0.98;;;0.77;;
20065;SDS011;10193;48.884;9.182;2023-04-24T11:23:38;0.90;;;0.90;;
20065;SDS011;10193;48.884;9.182;2023-04-24T11:26:11;2.10;;;0.80;;
20065;SDS011;10193;48.884;9.182;2023-04-24T11:28:44;0.90;;;0.90;;
20065;SDS011;10193;48.884;9.182;2023-04-24T11:34:16;1.02;;;1.00;;
20065;SDS011;10193;48.884;9.182;2023-04-24T11:36:43;1.52;;;1.42;;
20065;SDS011;10193;48.884;9.182;2023-04-24T11:39:11;1.40;;;1.30;;
20065;SDS011;10193;48.884;9.182;2023-04-24T11:41:38;1.40;;;1.40;;
20065;SDS011;10193;48.884;9.182;2023-04-24T11:44:05;1.60;;;1.50;;
20065;SDS011;10193;48.884;9.182;2023-04-24T11:46:33;1.10;;;1.10;;
20065;SDS011;10193;48.884;9.182;2023-04-24T11:49:00;1.17;;;1.13;;
20065;SDS011;10193;48.884;9.182;2023-04-24T11:51:28;1.67;;;1.27;;
20065;SDS011;10193;48.884;9.182;2023-04-24T11:53:55;1.10;;;1.00;;
20065;SDS011;10193;48.884;9.182;2023-04-24T11:56:22;0.90;;;0.90;;
20065;SDS011;10193;48.884;9.182;2023-04-24T11:58:51;1.00;;;0.90;;
20065;SDS011;10193;48.884;9.182;2023-04-24T12:01:18;0.90;;;0.90;;
20065;SDS011;10193;48.884;9.182;2023-04-24T12:03:46;1.40;;;1.00;;
20065;SDS011;10193;48.884;9.182;2023-04-24T12:06:15;1.20;;;1.20;;
20065;SDS011;10193;48.884;9.182;2023-04-24T12:08:46;1.02;;;1.00;;
20065;SDS011;10193;48.884;9.182;2023-04-24T12:11:14;1.30;;;1.20;;
20065;SDS011;10193;48.884;9.182;2023-04-24T12:13:42;1.25;;;1.23;;
20065;SDS011;10193;48.884;9.182;2023-04-24T12:16:09;1.30;;;1.20;;
20065;SDS011;10193;48.884;9.182;2023-04-24T12:18:40;0.80;;;0.80;;
20065;SDS011;10193;48.884;9.182;2023-04-24T12:21:17;1.08;;;1.00;;
20065;SDS011;10193;48.884;9.182;2023-04-24T12:23:46;1.95;;;1.17;;
20065;SDS011;10193;48.884;9.182;2023-04-24T12:26:15;1.00;;;1.00;;
20065;SDS011;10193;48.884;9.182;2023-04-24T12:28:45;1.05;;;1.00;;
20065;SDS011;10193;48.884;9.182;2023-04-24T12:31:13;1.02;;;1.00;;
20065;SDS011;10193;48.884;9.182;2023-04-24T12:33:39;0.98;;;0.85;;
20065;SDS011;10193;48.884;9.182;2023-04-24T12:36:07;1.08;;;1.00;;
20065;SDS011;10193;48.884;9.182;2023-04-24T12:38:37;1.00;;;1.00;;
20065;SDS011;10193;48.884;9.182;2023-04-24T12:41:08;0.85;;;0.80;;
20065;SDS011;10193;48.884;9.182;2023-04-24T12:43:35;1.33;;;1.23;;
20065;SDS011;10193;48.884;9.182;2023-04-24T12:46:02;1.27;;;1.17;;
20065;SDS011;10193;48.884;9.182;2023-04-24T12:48:29;1.25;;;1.15;;
20065;SDS011;10193;48.884;9.182;2023-04-24T12:50:57;1.00;;;1.00;;
20065;SDS011;10193;48.884;9.182;2023-04-24T12:53:26;1.38;;;1.27;;
20065;SDS011;10193;48.884;9.182;2023-04-24T12:55:54;1.50;;;1.40;;
20065;SDS011;10193;48.884;9.182;2023-04-24T12:58:22;1.40;;;1.17;;
20065;SDS011;10193;48.884;9.182;2023-04-24T13:00:49;1.20;;;1.20;;
20065;SDS011;10193;48.884;9.182;2023-04-24T13:03:16;2.20;;;1.17;;
20065;SDS011;10193;48.884;9.182;2023-04-24T13:05:43;1.17;;;0.95;;
20065;SDS011;10193;48.884;9.182;2023-04-24T13:08:10;0.77;;;0.73;;
20065;SDS011;10193;48.884;9.182;2023-04-24T13:10:38;0.98;;;0.98;;
20065;SDS011;10193;48.884;9.182;2023-04-24T13:13:05;1.20;;;1.10;;
20065;SDS011;10193;48.884;9.182;2023-04-24T13:15:33;1.08;;;1.08;;
20065;SDS011;10193;48.884;9.182;2023-04-24T13:18:00;1.90;;;1.13;;
20065;SDS011;10193;48.884;9.182;2023-04-24T13:20:27;1.20;;;1.10;;
20065;SDS011;10193;48.884;9.182;2023-04-24T13:22:53;1.30;;;1.20;;
20065;SDS011;10193;48.884;9.182;2023-04-24T13:25:20;1.67;;;1.40;;
20065;SDS011;10193;48.884;9.182;2023-04-24T13:27:48;1.67;;;1.40;;
20065;SDS011;10193;48.884;9.182;2023-04-24T13:30:15;1.92;;;1.67;;
20065;SDS011;10193;48.884;9.182;2023-04-24T13:32:43;1.60;;;1.50;;
20065;SDS011;10193;48.884;9.182;2023-04-24T13:35:10;2.00;;;1.90;;
20065;SDS011;10193;48.884;9.182;2023-04-24T13:37:37;1.75;;;1.65;;
20065;SDS011;10193;48.884;9.182;2023-04-24T13:40:04;1.95;;;1.70;;
20065;SDS011;10193;48.884;9.182;2023-04-24T13:42:32;1.60;;;1.50;;
20065;SDS011;10193;48.884;9.182;2023-04-24T13:44:59;2.10;;;1.90;;
20065;SDS011;10193;48.884;9.182;2023-04-24T13:47:25;1.52;;;1.42;;
20065;SDS011;10193;48.884;9.182;2023-04-24T13:49:53;1.83;;;1.73;;
20065;SDS011;10193;48.884;9.182;2023-04-24T13:52:20;1.65;;;1.55;;
20065;SDS011;10193;48.884;9.182;2023-04-24T13:54:46;1.80;;;1.70;;
20065;SDS011;10193;48.884;9.182;2023-04-24T13:57:14;1.50;;;1.40;;
20065;SDS011;10193;48.884;9.182;2023-04-24T13:59:41;2.08;;;1.70;;
20065;SDS011;10193;48.884;9.182;2023-04-24T14:02:08;1.50;;;1.40;;
20065;SDS011;10193;48.884;9.182;2023-04-24T14:04:35;1.42;;;1.40;;
20065;SDS011;10193;48.884;9.182;2023-04-24T14:07:02;1.58;;;1.45;;
20065;SDS011;10193;48.884;9.182;2023-04-24T14:09:29;1.60;;;1.52;;
20065;SDS011;10193;48.884;9.182;2023-04-24T14:11:56;1.77;;;1.67;;
20065;SDS011;10193;48.884;9.182;2023-04-24T14:14:23;1.70;;;1.50;;
20065;SDS011;10193;48.884;9.182;2023-04-24T14:16:49;1.50;;;1.40;;
20065;SDS011;10193;48.884;9.182;2023-04-24T14:19:16;1.45;;;1.35;;
20065;SDS011;10193;48.884;9.182;2023-04-24T14:21:43;1.60;;;1.50;;
20065;SDS011;10193;48.884;9.182;2023-04-24T14:24:11;1.25;;;1.20;;
20065;SDS011;10193;48.884;9.182;2023-04-24T14:26:38;1.48;;;1.38;;
20065;SDS011;10193;48.884;9.182;2023-04-24T14:29:04;1.48;;;1.38;;
20065;SDS011;10193;48.884;9.182;2023-04-24T14:31:31;1.27;;;1.27;;
20065;SDS011;10193;48.884;9.182;2023-04-24T14:33:58;1.90;;;1.48;;
20065;SDS011;10193;48.884;9.182;2023-04-24T14:36:25;1.27;;;1.27;;
20065;SDS011;10193;48.884;9.182;2023-04-24T14:38:51;1.50;;;1.40;;
20065;SDS011;10193;48.884;9.182;2023-04-24T14:41:19;1.20;;;1.20;;
20065;SDS011;10193;48.884;9.182;2023-04-24T14:43:46;1.48;;;1.38;;
20065;SDS011;10193;48.884;9.182;2023-04-24T14:46:12;1.35;;;1.25;;
20065;SDS011;10193;48.884;9.182;2023-04-24T14:48:39;1.23;;;1.20;;
20065;SDS011;10193;48.884;9.182;2023-04-24T14:51:06;2.05;;;1.35;;
20065;SDS011;10193;48.884;9.182;2023-04-24T14:53:33;1.25;;;1.25;;
20065;SDS011;10193;48.884;9.182;2023-04-24T14:56:00;1.02;;;1.02;;
20065;SDS011;10193;48.884;9.182;2023-04-24T14:58:28;1.52;;;1.42;;
20065;SDS011;10193;48.884;9.182;2023-04-24T15:00:55;1.48;;;1.23;;